Time;durP1;ratioP1;P1;durP2;ratioP2;P2;SDS_P1;SDS_P2;PMS_P1;PMS_P2;Temp;Humidity;BMP_temperature;BMP_pressure;BME280_temperature;BME280_humidity;BME280_pressure;Samples;Min_cycle;Max_cycle;Signal;HPM_P1;HPM_P2
2022/10/25 00:00:26;;;;;;;17.83;3.00;;;14.70;99.90;;;;;;5062910;28;20027;-68
2022/10/25 00:02:52;;;;;;;27.42;3.58;;;14.70;99.90;;;;;;5062466;28;20427;-68
2022/10/25 00:05:18;;;;;;;21.60;4.10;;;14.80;99.90;;;;;;5062115;28;20032;-68
2022/10/25 00:07:43;;;;;;;15.50;3.45;;;14.80;99.90;;;;;;5062040;28;20044;-68
2022/10/25 00:10:09;;;;;;;23.17;4.30;;;14.80;99.90;;;;;;5062969;28;20036;-68
2022/10/25 00:12:41;;;;;;;27.13;5.10;;;14.90;99.90;;;;;;5063413;28;20031;-67
2022/10/25 00:15:07;;;;;;;;;;;14.90;99.90;;;;;;5063191;28;20024;-68
2022/10/25 00:17:33;;;;;;;17.67;4.10;;;14.90;99.90;;;;;;5054379;28;19958;-67
2022/10/25 00:19:58;;;;;;;20.08;3.20;;;14.80;99.90;;;;;;5063295;28;20025;-67
2022/10/25 00:22:24;;;;;;;28.85;4.40;;;14.80;99.90;;;;;;5063165;28;20509;-67
2022/10/25 00:24:49;;;;;;;32.78;5.85;;;14.70;99.90;;;;;;5064874;28;20472;-67
2022/10/25 00:27:15;;;;;;;30.95;5.50;;;14.70;99.90;;;;;;5065983;28;20364;-67
2022/10/25 00:29:41;;;;;;;24.35;4.55;;;14.80;99.90;;;;;;5065767;28;20537;-67
2022/10/25 00:32:06;;;;;;;34.80;4.80;;;14.80;99.90;;;;;;5064630;28;20044;-67
2022/10/25 00:34:32;;;;;;;24.63;5.13;;;14.70;99.90;;;;;;5060494;28;20071;-67
2022/10/25 00:36:57;;;;;;;25.30;4.07;;;14.70;99.90;;;;;;5063413;28;20040;-67
2022/10/25 00:39:23;;;;;;;28.80;4.95;;;14.70;99.90;;;;;;5062912;28;20033;-68
2022/10/25 00:41:49;;;;;;;24.67;5.75;;;14.70;99.90;;;;;;5060124;28;20177;-67
2022/10/25 00:44:33;;;;;;;26.98;4.82;;;14.70;99.90;;;;;;5058193;28;20593;-68
2022/10/25 00:46:59;;;;;;;28.10;4.45;;;14.60;99.90;;;;;;5059014;28;20116;-67
2022/10/25 00:49:25;;;;;;;24.38;3.97;;;14.60;99.90;;;;;;5062749;28;20103;-66
2022/10/25 00:51:58;;;;;;;20.35;3.50;;;14.70;99.90;;;;;;5056133;28;20035;-68
2022/10/25 00:54:31;;;;;;;26.95;5.00;;;14.60;99.90;;;;;;5064375;28;20029;-67
2022/10/25 00:57:00;;;;;;;20.50;3.53;;;14.60;99.90;;;;;;5060290;28;20021;-67
2022/10/25 00:59:27;;;;;;;29.27;4.10;;;14.60;99.90;;;;;;5060208;28;20021;-67
2022/10/25 01:01:54;;;;;;;23.17;3.60;;;14.60;99.90;;;;;;5062212;28;20033;-67
2022/10/25 01:04:23;;;;;;;22.90;3.67;;;14.60;99.90;;;;;;5047646;28;20474;-66
2022/10/25 01:06:50;;;;;;;25.67;3.70;;;14.60;99.90;;;;;;5046705;28;20040;-67
2022/10/25 01:09:21;;;;;;;29.08;4.05;;;14.60;99.90;;;;;;5049681;28;20020;-67
2022/10/25 01:11:46;;;;;;;26.83;4.05;;;14.60;99.90;;;;;;5057182;28;20025;-68
2022/10/25 01:14:14;;;;;;;26.52;4.07;;;14.60;99.90;;;;;;5052137;28;20306;-67
2022/10/25 01:16:42;;;;;;;34.75;4.22;;;14.60;99.90;;;;;;5048938;28;20107;-67
2022/10/25 01:19:30;;;;;;;25.63;3.80;;;14.60;99.90;;;;;;5051379;28;20025;-67
2022/10/25 01:22:01;;;;;;;33.78;4.32;;;14.60;99.90;;;;;;5043057;28;20037;-67
2022/10/25 01:24:41;;;;;;;23.50;4.07;;;14.60;99.90;;;;;;5044127;28;20103;-67
2022/10/25 01:28:02;;;;;;;26.90;3.38;;;14.60;99.90;;;;;;5047486;28;20431;-67
2022/10/25 01:31:02;;;;;;;21.48;3.70;;;14.60;99.90;;;;;;5034464;28;20033;-67
2022/10/25 01:33:35;;;;;;;27.15;3.90;;;14.60;99.90;;;;;;5043391;28;20075;-67
2022/10/25 01:36:06;;;;;;;22.13;3.78;;;14.60;99.90;;;;;;5047503;28;20035;-67
2022/10/25 01:38:49;;;;;;;21.65;3.33;;;14.60;99.90;;;;;;5052036;28;20075;-67
2022/10/25 01:41:19;;;;;;;27.80;3.67;;;14.70;99.90;;;;;;5038374;28;20033;-67
2022/10/25 01:43:54;;;;;;;23.42;4.85;;;14.70;99.90;;;;;;5037233;28;20026;-67
2022/10/25 01:46:44;;;;;;;33.63;3.90;;;14.70;99.90;;;;;;5037837;28;20032;-67
2022/10/25 01:49:16;;;;;;;24.65;5.88;;;14.70;99.90;;;;;;5048890;28;20094;-67
2022/10/25 01:51:42;;;;;;;25.52;3.25;;;14.70;99.90;;;;;;5052697;28;20060;-67
2022/10/25 01:54:20;;;;;;;25.23;3.47;;;14.70;99.90;;;;;;5039980;28;20053;-67
2022/10/25 01:57:04;;;;;;;19.42;3.10;;;14.70;99.90;;;;;;5053351;28;20104;-67
2022/10/25 01:59:55;;;;;;;15.43;2.80;;;14.70;99.90;;;;;;5048653;28;20040;-67
2022/10/25 02:02:52;;;;;;;17.10;2.40;;;14.70;99.90;;;;;;5033687;28;20467;-67
2022/10/25 02:05:42;;;;;;;14.18;2.08;;;14.80;99.90;;;;;;5035462;28;20037;-67
2022/10/25 02:08:16;;;;;;;11.15;1.70;;;14.80;99.90;;;;;;5044280;28;20021;-67
2022/10/25 02:11:07;;;;;;;17.02;2.55;;;14.70;99.90;;;;;;5054359;28;20460;-68
2022/10/25 02:13:35;;;;;;;15.82;3.00;;;14.60;99.90;;;;;;5058578;28;20064;-68
2022/10/25 02:16:13;;;;;;;11.90;2.25;;;14.50;99.90;;;;;;5049867;28;20018;-68
2022/10/25 02:18:44;;;;;;;17.23;4.13;;;14.40;99.90;;;;;;5053086;28;20021;-68
2022/10/25 02:21:11;;;;;;;19.38;3.20;;;14.30;99.90;;;;;;5053050;28;20036;-68
2022/10/25 02:23:39;;;;;;;20.40;3.53;;;14.30;99.90;;;;;;5052669;28;20410;-68
2022/10/25 02:26:08;;;;;;;17.27;3.42;;;14.10;99.90;;;;;;5052560;28;20068;-68
2022/10/25 02:28:38;;;;;;;16.73;3.30;;;14.20;99.90;;;;;;5052309;28;20421;-68
2022/10/25 02:31:08;;;;;;;20.98;4.18;;;14.10;99.90;;;;;;5052921;28;20745;-68
2022/10/25 02:33:35;;;;;;;22.27;3.53;;;14.10;99.90;;;;;;5056226;28;20048;-68
2022/10/25 02:36:24;;;;;;;20.23;3.88;;;14.10;99.90;;;;;;5052879;28;20025;-68
2022/10/25 02:38:51;;;;;;;20.08;4.82;;;14.10;99.90;;;;;;5052349;28;20033;-68
2022/10/25 02:41:19;;;;;;;21.80;3.50;;;14.10;99.90;;;;;;5052641;28;20024;-68
2022/10/25 02:43:45;;;;;;;25.17;3.20;;;14.10;99.90;;;;;;5053043;28;20029;-67
2022/10/25 02:46:15;;;;;;;25.15;4.18;;;14.10;99.90;;;;;;5052565;28;20104;-67
2022/10/25 02:48:41;;;;;;;15.68;3.30;;;14.20;99.90;;;;;;5052743;28;20021;-68
2022/10/25 02:51:07;;;;;;;22.08;3.10;;;14.20;99.90;;;;;;5052901;28;20025;-67
2022/10/25 02:53:34;;;;;;;25.00;4.13;;;14.30;99.90;;;;;;5038860;28;20048;-68
2022/10/25 02:56:02;;;;;;;17.40;3.70;;;14.30;99.90;;;;;;5052183;28;20060;-68
2022/10/25 02:58:33;;;;;;;19.05;3.42;;;14.40;99.90;;;;;;5040896;28;20033;-68
2022/10/25 03:00:59;;;;;;;22.50;4.07;;;14.40;99.90;;;;;;5032905;28;20029;-67
2022/10/25 03:03:26;;;;;;;24.13;4.05;;;14.50;99.90;;;;;;5032682;28;20034;-67
2022/10/25 03:05:52;;;;;;;15.63;2.80;;;14.50;99.90;;;;;;5032305;28;20037;-67
2022/10/25 03:08:18;;;;;;;18.77;2.75;;;14.50;99.90;;;;;;5042220;28;20456;-67
2022/10/25 03:10:43;;;;;;;17.95;3.20;;;14.50;99.90;;;;;;5052113;28;20025;-67
2022/10/25 03:13:09;;;;;;;19.95;3.60;;;14.50;99.90;;;;;;5043037;28;20041;-67
2022/10/25 03:15:34;;;;;;;14.05;3.20;;;14.50;99.90;;;;;;5036367;28;20029;-68
2022/10/25 03:18:00;;;;;;;9.82;2.00;;;14.50;99.90;;;;;;5039051;28;20040;-68
2022/10/25 03:20:26;;;;;;;23.55;3.95;;;14.50;99.90;;;;;;5052236;28;20028;-68
2022/10/25 03:22:51;;;;;;;11.90;2.47;;;14.50;99.90;;;;;;5046158;28;20057;-67
2022/10/25 03:25:17;;;;;;;15.43;2.83;;;14.40;99.90;;;;;;5045184;28;20033;-68
2022/10/25 03:27:42;;;;;;;20.45;3.83;;;14.40;99.90;;;;;;5038034;28;20026;-67
2022/10/25 03:30:08;;;;;;;15.13;2.58;;;14.40;99.90;;;;;;5040798;28;20077;-67
2022/10/25 03:32:34;;;;;;;16.88;2.90;;;14.40;99.90;;;;;;5032427;28;20029;-67
2022/10/25 03:34:59;;;;;;;15.65;2.50;;;14.40;99.90;;;;;;5042219;28;20087;-68
2022/10/25 03:37:25;;;;;;;19.08;2.78;;;14.40;99.90;;;;;;5046733;28;20025;-67
2022/10/25 03:39:52;;;;;;;12.65;2.50;;;14.40;99.90;;;;;;5042787;28;20036;-66
2022/10/25 03:42:18;;;;;;;21.15;2.78;;;14.40;99.90;;;;;;5051017;28;20063;-66
2022/10/25 03:44:44;;;;;;;14.63;2.40;;;14.40;99.90;;;;;;5045475;28;20053;-67
2022/10/25 03:47:09;;;;;;;18.38;3.47;;;14.40;99.90;;;;;;5051997;28;20033;-67
2022/10/25 03:49:35;;;;;;;20.55;2.80;;;14.40;99.90;;;;;;5037376;28;20036;-67
2022/10/25 03:52:00;;;;;;;10.25;2.13;;;14.40;99.90;;;;;;5031535;28;20074;-67
2022/10/25 03:54:26;;;;;;;20.27;2.80;;;14.40;99.90;;;;;;5042204;28;20072;-67
2022/10/25 03:56:51;;;;;;;13.15;2.53;;;14.40;99.90;;;;;;5047081;28;20033;-67
2022/10/25 03:59:17;;;;;;;22.77;2.67;;;14.40;99.90;;;;;;5030694;28;20021;-67
2022/10/25 04:01:43;;;;;;;16.40;2.50;;;14.40;99.90;;;;;;5038461;28;20095;-67
2022/10/25 04:04:08;;;;;;;19.08;2.30;;;14.30;99.90;;;;;;5034970;28;20118;-67
2022/10/25 04:06:34;;;;;;;12.75;2.28;;;14.30;99.90;;;;;;5051201;28;20036;-67
2022/10/25 04:08:59;;;;;;;14.82;2.70;;;14.30;99.90;;;;;;5049075;28;20025;-67
2022/10/25 04:11:25;;;;;;;16.92;2.83;;;14.30;99.90;;;;;;5032107;28;20025;-67
2022/10/25 04:13:50;;;;;;;19.25;2.70;;;14.30;99.90;;;;;;5037956;28;20044;-67
2022/10/25 04:16:16;;;;;;;15.55;2.70;;;14.30;99.90;;;;;;5038511;28;20017;-67
2022/10/25 04:18:42;;;;;;;15.95;1.90;;;14.30;99.90;;;;;;5055680;28;20017;-67
2022/10/25 04:21:08;;;;;;;13.25;1.67;;;14.30;99.90;;;;;;5049193;28;20021;-67
2022/10/25 04:23:33;;;;;;;18.50;2.70;;;14.30;99.90;;;;;;5046687;28;20025;-67
2022/10/25 04:25:59;;;;;;;21.73;3.25;;;14.30;99.90;;;;;;5054228;28;20061;-67
2022/10/25 04:28:25;;;;;;;10.98;2.00;;;14.30;99.90;;;;;;5055039;28;20516;-67
2022/10/25 04:30:51;;;;;;;15.10;2.38;;;14.30;99.90;;;;;;5038166;28;20033;-67
2022/10/25 04:33:16;;;;;;;14.55;2.50;;;14.20;99.90;;;;;;5043889;28;20091;-67
2022/10/25 04:35:42;;;;;;;17.23;2.40;;;14.20;99.90;;;;;;5045384;28;20029;-67
2022/10/25 04:38:09;;;;;;;12.18;2.15;;;14.20;99.90;;;;;;5055021;28;20017;-67
2022/10/25 04:40:35;;;;;;;9.05;2.00;;;14.20;99.90;;;;;;5054025;28;20025;-67
2022/10/25 04:43:01;;;;;;;12.07;2.53;;;14.20;99.90;;;;;;5041246;28;20095;-67
2022/10/25 04:45:27;;;;;;;19.80;2.80;;;14.10;99.90;;;;;;5048277;28;20025;-67
2022/10/25 04:47:53;;;;;;;13.10;2.47;;;14.10;99.90;;;;;;5050004;28;20453;-67
2022/10/25 04:50:18;;;;;;;15.70;2.55;;;14.10;99.90;;;;;;5034700;28;20111;-67
2022/10/25 04:52:44;;;;;;;13.55;2.70;;;14.10;99.90;;;;;;5039186;28;20349;-67
2022/10/25 04:55:10;;;;;;;15.65;2.55;;;14.10;99.90;;;;;;5047264;28;20052;-67
2022/10/25 04:57:35;;;;;;;9.18;2.00;;;14.10;99.90;;;;;;5036227;28;20032;-67
2022/10/25 05:00:01;;;;;;;16.30;3.00;;;14.10;99.90;;;;;;5044833;28;20025;-67
2022/10/25 05:02:26;;;;;;;15.43;2.85;;;14.00;99.90;;;;;;5043032;28;20025;-67
2022/10/25 05:04:52;;;;;;;16.55;2.65;;;14.00;99.90;;;;;;5049550;28;20044;-67
2022/10/25 05:07:19;;;;;;;19.35;3.05;;;14.00;99.90;;;;;;5034872;28;20028;-67
2022/10/25 05:09:45;;;;;;;13.80;2.22;;;14.00;99.90;;;;;;5035788;28;20041;-67
2022/10/25 05:12:10;;;;;;;16.13;2.88;;;14.00;99.90;;;;;;5035769;28;20075;-67
2022/10/25 05:14:36;;;;;;;14.68;2.88;;;14.00;99.90;;;;;;5046319;28;20115;-67
2022/10/25 05:17:01;;;;;;;15.43;2.83;;;14.00;99.90;;;;;;5038189;28;20029;-67
2022/10/25 05:19:27;;;;;;;13.35;2.60;;;14.00;99.90;;;;;;5035545;28;20121;-67
2022/10/25 05:21:53;;;;;;;14.70;2.58;;;14.00;99.90;;;;;;5042165;28;20049;-67
2022/10/25 05:24:18;;;;;;;20.65;3.83;;;14.00;99.90;;;;;;5040761;28;20103;-67
2022/10/25 05:26:44;;;;;;;17.60;4.40;;;14.00;99.90;;;;;;5051564;28;20028;-67
2022/10/25 05:29:11;;;;;;;20.92;3.50;;;14.00;99.90;;;;;;5046550;28;20048;-67
2022/10/25 05:31:39;;;;;;;10.95;2.85;;;14.10;99.90;;;;;;5053733;28;20033;-67
2022/10/25 05:34:05;;;;;;;19.30;6.07;;;14.10;99.90;;;;;;5052634;28;20033;-67
2022/10/25 05:36:32;;;;;;;14.75;3.30;;;14.10;99.90;;;;;;5053965;28;20025;-67
2022/10/25 05:38:59;;;;;;;27.38;5.13;;;14.20;99.90;;;;;;5051991;28;20078;-67
2022/10/25 05:41:25;;;;;;;16.73;4.10;;;14.20;99.90;;;;;;5053949;28;20028;-67
2022/10/25 05:43:51;;;;;;;21.48;6.22;;;14.20;99.90;;;;;;5052070;28;20025;-67
2022/10/25 05:46:22;;;;;;;18.15;5.18;;;14.30;99.90;;;;;;5046383;28;20357;-67
2022/10/25 05:48:49;;;;;;;15.07;3.88;;;14.40;99.90;;;;;;5044196;28;20708;-67
2022/10/25 05:51:14;;;;;;;17.85;4.43;;;14.40;99.90;;;;;;5033952;28;20027;-67
2022/10/25 05:53:44;;;;;;;17.45;3.78;;;14.40;99.90;;;;;;5033702;28;20037;-67
2022/10/25 05:56:11;;;;;;;17.88;5.18;;;14.40;99.90;;;;;;5033907;28;20480;-67
2022/10/25 05:58:37;;;;;;;17.58;5.60;;;14.40;99.90;;;;;;5042286;28;20108;-67
2022/10/25 06:01:03;;;;;;;15.50;4.07;;;14.40;99.90;;;;;;5037563;28;20033;-67
2022/10/25 06:03:28;;;;;;;16.13;2.78;;;14.40;99.90;;;;;;5048308;28;20047;-67
2022/10/25 06:05:58;;;;;;;10.88;2.20;;;14.50;99.90;;;;;;5033729;28;20032;-67
2022/10/25 06:08:23;;;;;;;23.08;5.00;;;14.50;99.90;;;;;;5032765;28;20029;-67
2022/10/25 06:10:49;;;;;;;18.63;3.47;;;14.40;99.90;;;;;;5052504;28;20025;-67
2022/10/25 06:13:14;;;;;;;17.58;2.85;;;14.40;99.90;;;;;;5047583;28;20083;-67
2022/10/25 06:15:40;;;;;;;21.33;5.20;;;14.30;99.90;;;;;;5043402;28;20167;-67
2022/10/25 06:18:06;;;;;;;19.48;3.65;;;14.30;99.90;;;;;;5043561;28;20074;-67
2022/10/25 06:20:31;;;;;;;14.38;2.85;;;14.30;99.90;;;;;;5038172;28;20465;-67
2022/10/25 06:22:57;;;;;;;13.88;3.10;;;14.30;99.90;;;;;;5033339;28;20025;-67
2022/10/25 06:25:23;;;;;;;17.33;4.40;;;14.30;99.90;;;;;;5053448;28;20330;-67
2022/10/25 06:27:48;;;;;;;18.80;3.28;;;14.30;99.90;;;;;;5034925;28;20432;-67
2022/10/25 06:30:14;;;;;;;20.58;3.65;;;14.30;99.90;;;;;;5034601;28;20408;-67
2022/10/25 06:32:39;;;;;;;25.63;4.80;;;14.30;99.90;;;;;;5032446;28;20428;-67
2022/10/25 06:35:05;;;;;;;22.52;6.63;;;14.30;99.90;;;;;;5049561;28;20051;-67
2022/10/25 06:37:31;;;;;;;18.83;5.38;;;14.30;99.90;;;;;;5050556;28;20434;-67
2022/10/25 06:39:56;;;;;;;24.00;7.65;;;14.20;99.90;;;;;;5045345;28;20029;-67
2022/10/25 06:42:22;;;;;;;17.55;3.90;;;14.30;99.90;;;;;;5038153;28;20021;-67
2022/10/25 06:44:48;;;;;;;22.08;4.63;;;14.30;99.90;;;;;;5047979;28;20045;-67
2022/10/25 06:47:13;;;;;;;18.35;5.47;;;14.30;99.90;;;;;;5037923;28;20495;-67
2022/10/25 06:49:39;;;;;;;22.30;6.50;;;14.30;99.90;;;;;;5048964;28;20022;-68
2022/10/25 06:52:04;;;;;;;20.65;4.00;;;14.20;99.90;;;;;;5032487;28;20067;-68
2022/10/25 06:54:30;;;;;;;13.57;4.13;;;14.20;99.90;;;;;;5051378;28;20037;-68
2022/10/25 06:56:56;;;;;;;16.75;3.90;;;14.20;99.90;;;;;;5043232;28;20033;-68
2022/10/25 06:59:22;;;;;;;18.45;3.85;;;14.20;99.90;;;;;;5038951;28;20048;-68
2022/10/25 07:01:48;;;;;;;14.88;4.18;;;14.20;99.90;;;;;;5036530;28;20111;-67
2022/10/25 07:04:14;;;;;;;14.02;2.47;;;14.20;99.90;;;;;;5037558;28;20472;-68
2022/10/25 07:06:40;;;;;;;15.27;2.88;;;14.30;99.90;;;;;;5052422;28;20029;-68
2022/10/25 07:09:08;;;;;;;9.82;2.40;;;14.20;99.90;;;;;;5048853;28;20416;-67
2022/10/25 07:11:34;;;;;;;14.68;2.95;;;14.30;99.90;;;;;;5050038;28;20122;-68
2022/10/25 07:14:01;;;;;;;11.95;2.40;;;14.20;99.90;;;;;;5045999;28;20052;-67
2022/10/25 07:16:28;;;;;;;6.90;1.85;;;14.30;99.90;;;;;;5042907;28;20061;-67
2022/10/25 07:19:01;;;;;;;13.02;2.58;;;14.30;99.90;;;;;;5031762;28;20029;-67
2022/10/25 07:21:28;;;;;;;10.35;1.95;;;14.40;99.90;;;;;;5033651;28;20140;-68
2022/10/25 07:23:54;;;;;;;20.75;4.93;;;14.50;99.90;;;;;;5045344;28;20025;-69
2022/10/25 07:26:31;;;;;;;14.38;2.55;;;14.50;99.90;;;;;;5047868;28;20017;-68
2022/10/25 07:28:59;;;;;;;14.63;3.58;;;14.60;99.90;;;;;;5040586;28;20040;-66
2022/10/25 07:31:28;;;;;;;12.68;1.85;;;14.70;99.90;;;;;;5050092;28;20358;-67
2022/10/25 07:33:56;;;;;;;18.80;2.50;;;14.80;99.90;;;;;;5052195;28;20045;-66
2022/10/25 07:36:21;;;;;;;9.38;1.80;;;14.90;99.90;;;;;;5034973;28;20036;-67
2022/10/25 07:38:47;;;;;;;10.57;2.05;;;15.00;99.90;;;;;;5031843;28;20101;-67
2022/10/25 07:41:13;;;;;;;9.95;1.90;;;15.00;99.90;;;;;;5048908;28;20020;-67
2022/10/25 07:43:38;;;;;;;18.48;2.97;;;15.10;99.90;;;;;;5033405;28;20038;-67
2022/10/25 07:46:05;;;;;;;16.42;2.38;;;15.10;99.90;;;;;;5044346;28;20461;-67
2022/10/25 07:48:31;;;;;;;16.50;2.70;;;15.20;99.90;;;;;;5052096;28;20112;-67
2022/10/25 07:50:56;;;;;;;12.10;3.28;;;15.20;99.90;;;;;;5053105;28;20104;-67
2022/10/25 07:53:22;;;;;;;15.60;3.33;;;15.20;99.90;;;;;;5051836;28;20021;-66
2022/10/25 07:55:53;;;;;;;23.13;4.47;;;15.30;99.90;;;;;;5035666;28;20013;-66
2022/10/25 07:58:19;;;;;;;16.75;3.92;;;15.30;99.90;;;;;;5039019;28;20071;-67
2022/10/25 08:00:44;;;;;;;22.10;3.80;;;15.40;99.90;;;;;;5049620;28;20414;-66
2022/10/25 08:03:11;;;;;;;16.30;4.18;;;15.50;99.90;;;;;;5036559;28;20029;-66
2022/10/25 08:05:37;;;;;;;17.58;3.75;;;15.60;99.90;;;;;;5055894;28;20365;-67
2022/10/25 08:08:04;;;;;;;19.40;4.28;;;15.70;99.90;;;;;;5042362;28;20021;-67
2022/10/25 08:10:30;;;;;;;13.82;3.65;;;15.80;99.90;;;;;;5045229;28;20037;-66
2022/10/25 08:12:56;;;;;;;19.05;4.38;;;15.90;99.90;;;;;;5049112;28;20041;-66
2022/10/25 08:15:22;;;;;;;18.48;4.72;;;15.90;99.90;;;;;;5042601;28;20087;-66
2022/10/25 08:17:55;;;;;;;17.20;4.75;;;15.90;99.90;;;;;;5036059;28;20030;-66
2022/10/25 08:20:20;;;;;;;18.75;4.65;;;15.80;99.90;;;;;;5042314;28;20032;-67
2022/10/25 08:22:46;;;;;;;13.90;4.47;;;15.70;99.90;;;;;;5055689;28;20021;-66
2022/10/25 08:25:11;;;;;;;12.48;3.45;;;15.70;99.90;;;;;;5036668;28;20025;-68
2022/10/25 08:27:40;;;;;;;17.92;5.03;;;15.60;99.90;;;;;;5035306;28;20017;-65
2022/10/25 08:30:06;;;;;;;13.27;5.00;;;15.50;99.90;;;;;;5047657;28;20041;-66
2022/10/25 08:32:35;;;;;;;29.25;5.95;;;15.50;99.90;;;;;;5041296;28;20036;-67
2022/10/25 08:35:01;;;;;;;22.38;5.15;;;15.50;99.90;;;;;;5034804;28;20025;-66
2022/10/25 08:37:26;;;;;;;17.85;4.63;;;15.60;99.90;;;;;;5050577;28;20031;-66
2022/10/25 08:39:52;;;;;;;15.27;4.40;;;15.70;99.90;;;;;;5052282;28;20067;-67
2022/10/25 08:43:02;;;;;;;13.60;4.20;;;15.70;99.90;;;;;;5042717;28;20045;-67
2022/10/25 08:45:36;;;;;;;20.30;4.45;;;15.90;99.90;;;;;;5074749;28;20371;-67
2022/10/25 08:48:05;;;;;;;18.48;3.75;;;16.10;99.90;;;;;;5059364;28;20029;-67
2022/10/25 08:50:33;;;;;;;15.98;3.83;;;16.40;99.90;;;;;;5055105;28;20380;-67
2022/10/25 08:53:03;;;;;;;13.43;3.30;;;16.80;99.90;;;;;;5063803;28;20391;-67
2022/10/25 08:55:32;;;;;;;16.33;3.30;;;17.20;99.90;;;;;;5075002;28;20031;-66
2022/10/25 08:57:59;;;;;;;15.68;3.78;;;17.50;99.90;;;;;;5074875;28;20016;-67
2022/10/25 09:00:31;;;;;;;14.52;3.50;;;17.70;99.90;;;;;;5071856;28;20025;-66
2022/10/25 09:02:58;;;;;;;13.55;2.72;;;17.80;99.90;;;;;;5074848;28;20017;-67
2022/10/25 09:05:33;;;;;;;8.98;2.22;;;18.00;99.90;;;;;;5074469;28;20028;-67
2022/10/25 09:08:09;;;;;;;7.90;1.98;;;18.40;99.90;;;;;;5074744;28;20034;-67
2022/10/25 09:10:44;;;;;;;20.70;2.75;;;19.10;99.90;;;;;;5074628;28;20125;-67
2022/10/25 09:13:41;;;;;;;14.30;3.50;;;19.70;99.90;;;;;;5074565;28;20037;-67
2022/10/25 09:16:15;;;;;;;12.02;2.75;;;20.00;99.90;;;;;;5058144;28;20420;-67
2022/10/25 09:18:53;;;;;;;12.15;2.05;;;19.90;99.90;;;;;;5054253;28;20033;-67
2022/10/25 09:21:28;;;;;;;12.38;2.13;;;19.90;99.90;;;;;;5045775;28;20026;-67
2022/10/25 09:24:14;;;;;;;15.45;2.97;;;20.10;99.90;;;;;;5050210;28;20051;-67
2022/10/25 09:26:49;;;;;;;13.70;2.90;;;20.30;99.90;;;;;;5054243;28;20033;-66
2022/10/25 09:29:33;;;;;;;9.05;2.13;;;20.30;99.90;;;;;;5054001;28;20381;-67
2022/10/25 09:32:04;;;;;;;11.68;2.65;;;20.50;99.90;;;;;;5054123;28;20036;-66
2022/10/25 09:34:32;;;;;;;18.10;4.90;;;20.20;99.90;;;;;;5054150;28;20190;-67
2022/10/25 09:37:15;;;;;;;15.77;3.40;;;19.80;99.90;;;;;;5065670;28;20021;-67
2022/10/25 09:39:45;;;;;;;24.15;7.55;;;19.30;99.90;;;;;;5053734;28;20029;-67
2022/10/25 09:42:23;;;;;;;21.38;5.03;;;18.90;99.90;;;;;;5053989;28;20503;-66
2022/10/25 09:44:55;;;;;;;22.75;5.72;;;18.60;99.90;;;;;;5072637;28;20141;-66
2022/10/25 09:47:46;;;;;;;15.93;4.75;;;18.30;99.90;;;;;;5073568;28;20063;-66
2022/10/25 09:50:29;;;;;;;16.20;4.35;;;18.10;99.90;;;;;;5049499;28;20037;-66
2022/10/25 09:53:01;;;;;;;;;;;17.90;99.90;;;;;;5071953;28;20456;-67
2022/10/25 09:55:31;;;;;;;;;;;17.70;99.90;;;;;;5058701;28;20042;-67
2022/10/25 09:57:57;;;;;;;13.82;4.05;;;17.80;99.90;;;;;;5053847;28;19908;-67
2022/10/25 10:00:23;;;;;;;9.55;2.97;;;18.20;99.90;;;;;;5050903;28;20032;-66
2022/10/25 10:02:48;;;;;;;14.70;5.15;;;18.70;99.90;;;;;;5052661;28;20521;-67
2022/10/25 10:05:16;;;;;;;10.35;3.00;;;19.10;99.90;;;;;;5053459;28;20012;-67
2022/10/25 10:07:44;;;;;;;15.68;3.80;;;19.30;99.90;;;;;;5041797;28;20029;-68
2022/10/25 10:10:17;;;;;;;19.45;4.22;;;19.40;99.90;;;;;;5046524;28;20056;-67
2022/10/25 10:12:58;;;;;;;14.75;3.63;;;19.30;99.90;;;;;;5048101;28;20043;-67
2022/10/25 10:15:47;;;;;;;13.40;3.43;;;19.20;99.90;;;;;;5046157;28;20028;-67
2022/10/25 10:18:24;;;;;;;11.75;3.58;;;19.40;99.90;;;;;;5035182;28;20396;-68
2022/10/25 10:21:06;;;;;;;9.63;3.60;;;19.60;99.90;;;;;;5042358;28;20349;-68
2022/10/25 10:23:54;;;;;;;10.02;2.95;;;20.00;99.90;;;;;;5051845;28;20094;-67
2022/10/25 10:26:43;;;;;;;13.48;3.78;;;20.30;99.90;;;;;;5038690;28;20032;-67
2022/10/25 10:29:16;;;;;;;14.38;3.10;;;20.00;99.90;;;;;;5036338;28;20045;-67
2022/10/25 10:31:46;;;;;;;12.57;3.35;;;19.60;99.90;;;;;;5044635;28;20036;-67
2022/10/25 10:34:41;;;;;;;9.98;3.67;;;19.30;99.90;;;;;;5050710;28;20127;-67
2022/10/25 10:37:20;;;;;;;11.07;3.92;;;19.00;99.90;;;;;;5036738;28;20029;-67
2022/10/25 10:39:53;;;;;;;13.82;3.10;;;19.10;99.90;;;;;;5039550;28;20021;-67
2022/10/25 10:42:21;;;;;;;6.70;2.38;;;19.10;99.90;;;;;;5044800;28;20031;-67
2022/10/25 10:45:19;;;;;;;17.73;3.83;;;18.90;99.90;;;;;;5046276;28;20021;-67
2022/10/25 10:47:50;;;;;;;16.52;3.63;;;18.70;99.90;;;;;;5027308;28;20033;-67
2022/10/25 10:50:23;;;;;;;12.27;3.67;;;18.50;99.90;;;;;;5051116;28;20479;-67
2022/10/25 10:53:12;;;;;;;14.73;3.83;;;18.40;99.90;;;;;;5050699;28;20037;-67
2022/10/25 10:55:44;;;;;;;10.55;3.78;;;18.50;99.90;;;;;;5051284;28;20021;-67
2022/10/25 10:58:20;;;;;;;12.57;3.90;;;18.50;99.90;;;;;;5052719;28;20468;-68
2022/10/25 11:00:50;;;;;;;11.98;4.13;;;18.50;99.90;;;;;;5044934;28;20036;-67
2022/10/25 11:03:37;;;;;;;9.75;4.22;;;18.40;99.90;;;;;;5044128;28;20071;-67
2022/10/25 11:06:14;;;;;;;13.18;4.28;;;18.50;99.90;;;;;;5047988;28;20031;-67
2022/10/25 11:08:42;;;;;;;11.32;4.45;;;18.50;99.90;;;;;;5052259;28;20405;-67
2022/10/25 11:11:21;;;;;;;10.15;4.13;;;18.90;99.90;;;;;;5040278;28;20029;-67
2022/10/25 11:13:57;;;;;;;13.43;3.95;;;19.00;99.90;;;;;;5041590;28;20025;-67
2022/10/25 11:16:46;;;;;;;12.55;5.20;;;18.90;99.90;;;;;;5032419;28;20030;-67
2022/10/25 11:19:33;;;;;;;15.63;4.70;;;18.80;99.90;;;;;;5040709;28;20064;-67
2022/10/25 11:22:16;;;;;;;12.05;4.13;;;19.10;99.90;;;;;;5044222;28;20412;-67
2022/10/25 11:25:22;;;;;;;13.98;4.95;;;19.50;99.90;;;;;;5051377;28;20117;-67
2022/10/25 11:28:21;;;;;;;10.15;2.92;;;20.10;99.90;;;;;;5063759;28;20112;-67
2022/10/25 11:30:58;;;;;;;13.02;3.00;;;20.40;99.90;;;;;;5059163;28;20029;-67
2022/10/25 11:33:41;;;;;;;12.40;3.15;;;20.40;99.90;;;;;;5051958;28;20060;-67
2022/10/25 11:36:18;;;;;;;9.70;3.20;;;20.30;99.90;;;;;;5041527;28;20017;-67
2022/10/25 11:39:28;;;;;;;6.95;3.13;;;20.50;99.90;;;;;;5056284;28;20059;-67
2022/10/25 11:42:05;;;;;;;10.88;3.35;;;20.80;99.90;;;;;;5056124;28;20024;-67
2022/10/25 11:45:08;;;;;;;12.05;3.28;;;21.10;99.90;;;;;;5047947;28;20036;-67
2022/10/25 11:47:50;;;;;;;8.48;3.80;;;20.90;99.90;;;;;;5050200;28;20064;-67
2022/10/25 11:50:39;;;;;;;12.60;3.57;;;20.90;99.90;;;;;;5056203;28;20021;-67
2022/10/25 11:53:54;;;;;;;11.05;3.40;;;21.20;99.90;;;;;;5053013;28;20074;-67
2022/10/25 11:56:32;;;;;;;8.77;2.60;;;21.10;99.90;;;;;;5044125;28;20514;-67
2022/10/25 11:59:16;;;;;;;6.85;2.10;;;20.90;99.90;;;;;;5055410;28;20052;-67
2022/10/25 12:01:57;;;;;;;13.00;2.50;;;20.80;99.90;;;;;;5054946;28;20028;-67
2022/10/25 12:04:42;;;;;;;7.90;2.47;;;20.60;99.90;;;;;;5055724;28;20020;-68
2022/10/25 12:07:20;;;;;;;7.47;2.45;;;20.80;99.90;;;;;;5055020;28;20500;-67
2022/10/25 12:10:14;;;;;;;9.32;2.38;;;20.60;99.90;;;;;;5054372;28;20032;-67
2022/10/25 12:13:10;;;;;;;15.65;2.80;;;20.40;99.90;;;;;;5053418;28;20456;-67
2022/10/25 12:15:49;;;;;;;10.60;2.58;;;20.40;99.90;;;;;;5054252;28;20112;-66
2022/10/25 12:18:20;;;;;;;11.98;2.03;;;20.30;99.90;;;;;;5063945;28;20025;-66
2022/10/25 12:20:48;;;;;;;9.65;2.50;;;20.20;99.90;;;;;;5062750;28;20025;-67
2022/10/25 12:23:18;;;;;;;6.00;1.70;;;20.00;99.90;;;;;;5052475;28;20028;-67
2022/10/25 12:25:47;;;;;;;10.13;2.42;;;20.00;99.90;;;;;;5055115;28;20060;-67
2022/10/25 12:28:39;;;;;;;9.85;2.38;;;20.10;99.90;;;;;;5050081;28;20149;-68
2022/10/25 12:31:23;;;;;;;12.05;2.28;;;20.00;99.90;;;;;;5054767;28;20068;-67
2022/10/25 12:34:00;;;;;;;14.25;2.72;;;19.90;99.90;;;;;;5048270;28;20064;-67
2022/10/25 12:36:33;;;;;;;16.75;2.83;;;19.80;99.90;;;;;;5054793;28;20021;-67
2022/10/25 12:39:03;;;;;;;10.85;2.30;;;19.60;99.90;;;;;;5053716;28;20033;-67
2022/10/25 12:41:35;;;;;;;13.57;2.63;;;19.50;99.90;;;;;;5051201;28;20032;-67
2022/10/25 12:44:12;;;;;;;17.73;2.65;;;19.50;99.90;;;;;;5048624;28;20048;-68
2022/10/25 12:46:56;;;;;;;15.48;2.28;;;19.70;99.90;;;;;;5048141;28;20048;-68
2022/10/25 12:49:43;;;;;;;16.05;2.67;;;20.00;99.90;;;;;;5053567;28;20069;-68
2022/10/25 12:52:34;;;;;;;9.40;2.33;;;20.40;99.90;;;;;;5061721;28;20036;-68
2022/10/25 12:55:14;;;;;;;15.32;2.40;;;20.70;99.90;;;;;;5064609;28;20083;-67
2022/10/25 12:57:57;;;;;;;10.30;2.28;;;20.80;99.90;;;;;;5061228;28;20025;-68
2022/10/25 13:00:23;;;;;;;13.45;2.55;;;20.70;99.90;;;;;;5063019;28;20036;-67